createdAt,value
2022-11-17T00:01:38.836Z,27.58
2022-11-17T00:04:07.034Z,41.83
2022-11-17T00:06:35.965Z,33.13
2022-11-17T00:09:04.745Z,25.92
2022-11-17T00:11:52.954Z,33.25
2022-11-17T00:14:33.006Z,45.20
2022-11-17T00:17:02.225Z,31.27
2022-11-17T00:19:48.623Z,39.05
2022-11-17T00:22:17.416Z,77.15
2022-11-17T00:24:45.426Z,80.43
2022-11-17T00:27:13.755Z,56.67
2022-11-17T00:29:41.666Z,36.30
2022-11-17T00:32:33.459Z,36.38
2022-11-17T00:35:02.196Z,35.33
2022-11-17T00:37:35.156Z,28.27
2022-11-17T00:40:04.940Z,98.10
2022-11-17T00:42:33.190Z,97.03
2022-11-17T00:45:01.544Z,36.95
2022-11-17T00:47:30.365Z,37.50
2022-11-17T00:49:58.274Z,34.42
2022-11-17T00:52:26.606Z,36.35
2022-11-17T00:54:54.505Z,33.20
2022-11-17T00:57:22.846Z,28.20
2022-11-17T00:59:50.815Z,34.35
2022-11-17T01:02:20.145Z,32.20
2022-11-17T01:04:48.187Z,38.95
2022-11-17T01:07:16.527Z,31.55
2022-11-17T01:09:44.506Z,33.95
2022-11-17T01:12:12.767Z,36.80
2022-11-17T01:14:40.779Z,40.65
2022-11-17T01:17:09.866Z,23.13
2022-11-17T01:19:37.796Z,20.73
2022-11-17T01:22:07.015Z,29.30
2022-11-17T01:24:35.005Z,23.20
2022-11-17T01:27:03.505Z,28.65
2022-11-17T01:29:31.506Z,28.48
2022-11-17T01:32:00.975Z,27.40
2022-11-17T01:34:28.927Z,25.75
2022-11-17T01:37:32.348Z,29.58
2022-11-17T01:40:00.755Z,29.00
2022-11-17T01:42:29.717Z,25.92
2022-11-17T01:45:01.907Z,22.80
2022-11-17T01:47:47.986Z,25.70
2022-11-17T01:50:34.524Z,28.02
2022-11-17T01:53:08.899Z,36.17
2022-11-17T01:55:58.518Z,29.05
2022-11-17T01:58:38.723Z,32.38
2022-11-17T02:01:07.086Z,120.47
2022-11-17T02:03:37.346Z,39.00
2022-11-17T02:06:09.216Z,138.18
2022-11-17T02:08:41.420Z,217.55
2022-11-17T02:11:14.654Z,155.40
2022-11-17T02:13:42.954Z,98.10
2022-11-17T02:16:16.155Z,123.25
2022-11-17T02:18:46.253Z,137.07
2022-11-17T02:21:44.814Z,73.53
2022-11-17T02:24:27.505Z,76.97
2022-11-17T02:27:32.934Z,97.28
2022-11-17T02:30:07.783Z,98.15
2022-11-17T02:32:46.164Z,76.28
2022-11-17T02:35:28.084Z,121.93
2022-11-17T02:38:02.464Z,88.60
2022-11-17T02:40:48.815Z,42.78
2022-11-17T02:43:39.103Z,108.55
2022-11-17T02:46:23.703Z,136.82
2022-11-17T02:49:06.024Z,94.50
2022-11-17T02:51:37.393Z,53.25
2022-11-17T02:54:06.233Z,88.20
2022-11-17T02:56:34.473Z,91.50
2022-11-17T02:59:05.383Z,102.90
2022-11-17T03:01:36.241Z,100.20
2022-11-17T03:04:26.163Z,57.53
2022-11-17T03:07:06.683Z,120.35
2022-11-17T03:09:45.554Z,70.05
2022-11-17T03:12:23.873Z,19.23
2022-11-17T03:14:57.372Z,17.60
2022-11-17T03:17:48.304Z,21.00
2022-11-17T03:20:33.843Z,17.55
2022-11-17T03:23:17.944Z,20.00
2022-11-17T03:25:51.982Z,23.15
2022-11-17T03:28:24.782Z,16.05
2022-11-17T03:30:54.635Z,18.13
2022-11-17T03:33:26.232Z,17.10
2022-11-17T03:36:13.912Z,17.85
2022-11-17T03:38:53.963Z,16.92
2022-11-17T03:41:23.954Z,16.58
2022-11-17T03:43:54.152Z,15.38
2022-11-17T03:46:24.585Z,14.88
2022-11-17T03:49:04.541Z,14.90
2022-11-17T03:51:33.764Z,13.55
2022-11-17T03:54:03.174Z,23.10
2022-11-17T03:56:55.881Z,21.42
2022-11-17T03:59:44.017Z,19.77
2022-11-17T04:02:18.702Z,13.75
2022-11-17T04:05:05.685Z,15.65
2022-11-17T04:07:40.805Z,15.05
2022-11-17T04:10:19.292Z,12.80
2022-11-17T04:13:07.532Z,14.70
2022-11-17T04:15:54.311Z,14.88
2022-11-17T04:18:23.493Z,14.15
2022-11-17T04:20:54.536Z,15.75
2022-11-17T04:23:24.312Z,35.15
2022-11-17T04:26:15.514Z,37.42
2022-11-17T04:28:47.567Z,23.05
2022-11-17T04:31:24.646Z,44.85
2022-11-17T04:33:55.391Z,86.90
2022-11-17T04:36:33.551Z,104.75
2022-11-17T04:39:01.671Z,68.10
2022-11-17T04:41:48.982Z,44.47
2022-11-17T04:44:18.223Z,17.60
2022-11-17T04:46:47.260Z,46.78
2022-11-17T04:49:17.286Z,164.32
2022-11-17T04:51:46.668Z,125.05
2022-11-17T04:54:17.689Z,156.95
2022-11-17T04:56:48.518Z,111.07
2022-11-17T04:59:16.619Z,88.80
2022-11-17T05:01:45.770Z,39.78
2022-11-17T05:04:37.479Z,37.55
2022-11-17T05:07:08.448Z,26.95
2022-11-17T05:09:36.748Z,22.92
2022-11-17T05:12:23.698Z,22.85
2022-11-17T05:14:52.681Z,27.17
2022-11-17T05:17:22.453Z,65.10
2022-11-17T05:19:50.469Z,53.97
2022-11-17T05:22:41.410Z,57.65
2022-11-17T05:25:10.668Z,57.38
2022-11-17T05:27:38.909Z,69.82
2022-11-17T05:30:08.556Z,119.57
2022-11-17T05:32:37.790Z,75.32
2022-11-17T05:35:06.188Z,46.85
2022-11-17T05:37:34.466Z,55.08
2022-11-17T05:40:02.480Z,46.58
2022-11-17T05:42:30.815Z,98.05
2022-11-17T05:44:58.779Z,84.85
2022-11-17T05:47:28.266Z,103.47
2022-11-17T05:49:56.067Z,54.90
2022-11-17T05:52:24.256Z,58.03
2022-11-17T05:54:52.997Z,65.65
2022-11-17T05:57:27.938Z,67.88
2022-11-17T06:00:01.173Z,42.53
2022-11-17T06:02:38.906Z,50.13
2022-11-17T06:05:08.676Z,54.80
2022-11-17T06:07:38.990Z,44.83
2022-11-17T06:10:07.360Z,20.83
2022-11-17T06:12:35.676Z,22.02
2022-11-17T06:15:03.907Z,31.00
2022-11-17T06:17:37.249Z,21.33
2022-11-17T06:20:35.796Z,17.10
2022-11-17T06:23:07.716Z,19.15
2022-11-17T06:25:37.310Z,19.50
2022-11-17T06:28:11.011Z,16.67
2022-11-17T06:30:40.167Z,14.80
2022-11-17T06:33:12.280Z,22.15
2022-11-17T06:35:42.916Z,21.08
2022-11-17T06:38:11.099Z,17.95
2022-11-17T06:40:39.439Z,17.40
2022-11-17T06:43:09.847Z,17.92
2022-11-17T06:45:41.034Z,17.38
2022-11-17T06:48:11.702Z,23.38
2022-11-17T06:50:40.157Z,20.55
2022-11-17T06:53:10.907Z,16.88
2022-11-17T06:55:39.119Z,22.30
2022-11-17T06:58:11.748Z,26.45
2022-11-17T07:00:39.967Z,18.23
2022-11-17T07:03:11.503Z,40.28
2022-11-17T07:05:40.376Z,136.07
2022-11-17T07:08:09.848Z,37.40
2022-11-17T07:10:39.205Z,40.10
2022-11-17T07:13:07.246Z,104.53
2022-11-17T07:15:35.618Z,98.68
2022-11-17T07:18:03.567Z,198.77
2022-11-17T07:20:31.860Z,134.57
2022-11-17T07:23:00.527Z,72.50
2022-11-17T07:25:28.794Z,196.57
2022-11-17T07:28:01.085Z,341.42
2022-11-17T07:30:29.765Z,201.05
2022-11-17T07:33:03.847Z,156.63
2022-11-17T07:35:32.397Z,198.45
2022-11-17T07:38:01.857Z,110.72
2022-11-17T07:40:30.279Z,177.95
2022-11-17T07:42:58.183Z,161.65
2022-11-17T07:45:31.927Z,131.13
2022-11-17T07:48:02.605Z,70.40
2022-11-17T07:50:31.545Z,27.42
2022-11-17T07:52:59.641Z,62.92
2022-11-17T07:55:27.955Z,20.55
2022-11-17T07:58:01.145Z,51.83
2022-11-17T08:00:31.390Z,23.02
2022-11-17T08:03:05.214Z,60.33
2022-11-17T08:05:41.542Z,45.40
2022-11-17T08:08:14.836Z,25.35
2022-11-17T08:10:44.177Z,27.30
2022-11-17T08:13:14.318Z,25.17
2022-11-17T08:15:42.667Z,40.00
2022-11-17T08:18:10.592Z,42.35
2022-11-17T08:20:39.192Z,44.95
2022-11-17T08:23:07.261Z,37.65
2022-11-17T08:25:35.514Z,45.63
2022-11-17T08:28:03.624Z,33.30
2022-11-17T08:30:35.551Z,32.15
2022-11-17T08:33:03.578Z,33.03
2022-11-17T08:35:37.273Z,35.92
2022-11-17T08:38:06.002Z,28.52
2022-11-17T08:40:34.407Z,26.30
2022-11-17T08:43:02.344Z,32.60
2022-11-17T08:45:30.811Z,24.20
2022-11-17T08:47:59.183Z,20.88
2022-11-17T08:50:28.129Z,20.65
2022-11-17T08:52:56.204Z,23.63
2022-11-17T08:55:26.650Z,21.60
2022-11-17T08:57:54.593Z,27.85
2022-11-17T09:00:22.986Z,22.80
2022-11-17T09:02:50.936Z,20.25
2022-11-17T09:05:19.284Z,27.70
2022-11-17T09:07:47.428Z,26.40
2022-11-17T09:10:16.623Z,24.05
2022-11-17T09:12:44.552Z,23.63
2022-11-17T09:15:12.763Z,27.13
2022-11-17T09:17:43.895Z,23.73
2022-11-17T09:20:12.714Z,22.63
2022-11-17T09:22:40.883Z,31.20
2022-11-17T09:25:13.315Z,33.47
2022-11-17T09:27:41.675Z,43.25
2022-11-17T09:30:10.962Z,39.35
2022-11-17T09:32:38.822Z,31.52
2022-11-17T09:35:09.604Z,39.33
2022-11-17T09:37:38.073Z,37.65
2022-11-17T09:40:07.664Z,47.80
2022-11-17T09:42:40.301Z,72.28
2022-11-17T09:45:21.224Z,72.68
2022-11-17T09:48:33.680Z,79.65
2022-11-17T09:50:56.523Z,123.72
2022-11-17T09:53:31.564Z,46.08
2022-11-17T09:56:07.632Z,38.95
2022-11-17T09:58:50.124Z,47.08
2022-11-17T10:03:51.030Z,29.98
2022-11-17T10:06:32.125Z,34.50
2022-11-17T10:09:16.403Z,37.63
2022-11-17T10:11:47.983Z,37.20
2022-11-17T10:14:19.413Z,38.03
2022-11-17T10:16:54.975Z,37.38
2022-11-17T10:19:26.076Z,41.53
2022-11-17T10:22:03.249Z,37.25
2022-11-17T10:24:49.023Z,45.25
2022-11-17T10:27:26.825Z,46.83
2022-11-17T10:30:00.526Z,37.83
2022-11-17T10:32:31.578Z,33.63
2022-11-17T10:35:19.865Z,31.90
2022-11-17T10:38:14.606Z,43.72
2022-11-17T10:43:14.216Z,34.78
2022-11-17T10:45:57.313Z,33.72
2022-11-17T10:48:31.326Z,33.25
2022-11-17T10:51:00.624Z,42.13
2022-11-17T10:53:32.220Z,31.65
2022-11-17T10:56:05.014Z,30.65
2022-11-17T10:58:59.331Z,35.07
2022-11-17T11:01:39.185Z,28.05
2022-11-17T11:04:34.745Z,25.60
2022-11-17T11:07:06.999Z,27.90
2022-11-17T11:09:42.304Z,29.85
2022-11-17T11:12:16.461Z,25.27
2022-11-17T11:15:09.499Z,30.33
2022-11-17T11:17:37.626Z,28.97
2022-11-17T11:20:18.494Z,31.05
2022-11-17T11:22:59.441Z,26.58
2022-11-17T11:25:41.946Z,30.45
2022-11-17T11:28:28.494Z,30.02
2022-11-17T11:31:25.675Z,27.55
2022-11-17T11:34:10.643Z,24.98
2022-11-17T11:39:59.304Z,31.42
2022-11-17T11:43:20.675Z,27.17
2022-11-17T11:46:17.894Z,27.77
2022-11-17T11:48:48.264Z,25.75
2022-11-17T11:51:25.363Z,25.48
2022-11-17T11:54:04.417Z,22.80
2022-11-17T11:56:36.766Z,33.22
2022-11-17T11:59:48.508Z,21.58
2022-11-17T12:02:38.485Z,27.33
2022-11-17T12:05:44.115Z,22.83
2022-11-17T12:08:41.228Z,31.15
2022-11-17T12:11:33.354Z,22.88
2022-11-17T12:14:05.383Z,35.53
2022-11-17T12:16:37.936Z,43.70
2022-11-17T12:19:46.073Z,33.33
2022-11-17T12:22:22.715Z,29.27
2022-11-17T12:24:58.504Z,29.60
2022-11-17T12:27:35.328Z,30.40
2022-11-17T12:30:25.934Z,29.48
2022-11-17T12:32:55.534Z,31.65
2022-11-17T12:35:28.803Z,33.60
2022-11-17T12:38:15.443Z,32.37
2022-11-17T12:40:47.914Z,30.33
2022-11-17T12:43:15.865Z,36.17
2022-11-17T12:46:00.267Z,31.10
2022-11-17T12:48:35.740Z,39.08
2022-11-17T12:51:26.885Z,34.25
2022-11-17T12:54:38.333Z,31.55
2022-11-17T12:57:25.336Z,39.95
2022-11-17T13:00:10.944Z,31.67
2022-11-17T13:03:28.503Z,36.28
2022-11-17T13:06:34.810Z,25.65
2022-11-17T13:09:12.296Z,29.48
2022-11-17T13:11:40.174Z,39.85
2022-11-17T13:14:10.475Z,34.33
2022-11-17T13:16:46.604Z,32.70
2022-11-17T13:19:31.455Z,28.33
2022-11-17T13:22:02.594Z,32.13
2022-11-17T13:24:33.829Z,24.75
2022-11-17T13:27:07.703Z,31.73
2022-11-17T13:29:36.073Z,34.60
2022-11-17T13:32:23.829Z,34.72
2022-11-17T13:34:57.964Z,29.30
2022-11-17T13:37:28.553Z,39.38
2022-11-17T13:40:15.486Z,36.58
2022-11-17T13:42:44.233Z,37.80
2022-11-17T13:45:15.847Z,37.25
2022-11-17T13:47:49.683Z,34.58
2022-11-17T13:50:34.585Z,37.80
2022-11-17T13:53:05.615Z,37.35
2022-11-17T13:55:34.964Z,37.70
2022-11-17T13:58:07.074Z,42.88
2022-11-17T14:00:35.484Z,42.75
2022-11-17T14:03:07.222Z,36.70
2022-11-17T14:05:35.544Z,39.78
2022-11-17T14:08:23.794Z,37.03
2022-11-17T14:11:10.456Z,37.05
2022-11-17T14:14:12.302Z,32.15
2022-11-17T14:16:42.264Z,30.50
2022-11-17T14:19:16.265Z,28.17
2022-11-17T14:22:13.253Z,32.08
2022-11-17T14:24:45.945Z,39.05
2022-11-17T14:27:27.205Z,41.22
2022-11-17T14:29:55.424Z,43.50
2022-11-17T14:32:23.732Z,40.00
2022-11-17T14:34:51.734Z,42.33
2022-11-17T14:37:20.158Z,47.90
2022-11-17T14:39:48.233Z,46.30
2022-11-17T14:42:16.593Z,45.58
2022-11-17T14:44:44.603Z,38.30
2022-11-17T14:47:12.956Z,42.80
2022-11-17T14:49:40.883Z,39.97
2022-11-17T14:52:09.703Z,41.92
2022-11-17T14:54:37.573Z,37.40
2022-11-17T14:57:05.846Z,43.33
2022-11-17T14:59:35.413Z,43.92
2022-11-17T15:02:04.454Z,48.58
2022-11-17T15:04:50.060Z,40.90
2022-11-17T15:07:19.702Z,45.22
2022-11-17T15:09:47.685Z,50.90
2022-11-17T15:12:17.417Z,49.33
2022-11-17T15:14:48.163Z,55.42
2022-11-17T15:17:17.061Z,37.83
2022-11-17T15:19:45.872Z,43.88
2022-11-17T15:22:14.704Z,40.25
2022-11-17T15:24:42.683Z,49.50
2022-11-17T15:27:12.573Z,42.97
2022-11-17T15:29:41.196Z,51.40
2022-11-17T15:32:10.873Z,37.60
2022-11-17T15:34:38.819Z,30.88
2022-11-17T15:37:07.655Z,36.25
2022-11-17T15:39:36.359Z,50.60
2022-11-17T15:42:04.658Z,40.50
2022-11-17T15:44:32.552Z,35.42
2022-11-17T15:47:00.844Z,37.75
2022-11-17T15:49:28.774Z,32.40
2022-11-17T15:51:57.074Z,37.42
2022-11-17T15:54:25.119Z,32.45
2022-11-17T15:56:55.737Z,40.03
2022-11-17T15:59:23.763Z,39.38
2022-11-17T16:01:51.943Z,34.95
2022-11-17T16:04:19.932Z,39.72
2022-11-17T16:06:48.236Z,34.92
2022-11-17T16:09:17.306Z,35.72
2022-11-17T16:11:46.078Z,37.42
2022-11-17T16:14:15.337Z,42.05
2022-11-17T16:16:46.206Z,47.33
2022-11-17T16:19:14.728Z,51.70
2022-11-17T16:21:44.735Z,50.13
2022-11-17T16:24:12.848Z,47.67
2022-11-17T16:26:41.251Z,46.45
2022-11-17T16:29:09.490Z,55.20
2022-11-17T16:31:39.167Z,51.97
2022-11-17T16:34:13.314Z,55.33
2022-11-17T16:36:43.854Z,49.78
2022-11-17T16:39:17.311Z,52.13
2022-11-17T16:41:46.526Z,50.42
2022-11-17T16:44:17.285Z,50.25
2022-11-17T16:46:48.172Z,47.85
2022-11-17T16:49:18.165Z,52.30
2022-11-17T16:51:51.838Z,41.88
2022-11-17T16:54:21.854Z,47.90
2022-11-17T16:56:51.278Z,49.58
2022-11-17T16:59:19.830Z,47.92
2022-11-17T17:01:49.472Z,46.17
2022-11-17T17:04:17.637Z,46.15
2022-11-17T17:06:46.973Z,48.22
2022-11-17T17:09:15.907Z,46.75
2022-11-17T17:11:44.442Z,45.63
2022-11-17T17:14:14.596Z,54.08
2022-11-17T17:16:43.198Z,52.13
2022-11-17T17:19:13.622Z,48.97
2022-11-17T17:21:43.706Z,58.95
2022-11-17T17:24:12.406Z,54.75
2022-11-17T17:26:41.326Z,52.53
2022-11-17T17:29:12.025Z,66.43
2022-11-17T17:31:43.008Z,61.30
2022-11-17T17:34:13.038Z,51.40
2022-11-17T17:36:41.413Z,58.85
2022-11-17T17:39:16.224Z,54.38
2022-11-17T17:41:46.046Z,51.55
2022-11-17T17:44:19.237Z,63.88
2022-11-17T17:46:48.633Z,56.60
2022-11-17T17:49:19.112Z,51.83
2022-11-17T17:51:48.308Z,57.13
2022-11-17T17:54:19.016Z,44.80
2022-11-17T17:56:48.418Z,50.88
2022-11-17T17:59:17.021Z,45.17
2022-11-17T18:01:47.815Z,48.42
2022-11-17T18:04:16.846Z,49.63
2022-11-17T18:06:49.177Z,50.00
2022-11-17T18:09:20.731Z,53.95
2022-11-17T18:11:51.209Z,51.67
2022-11-17T18:14:25.149Z,53.00
2022-11-17T18:16:54.422Z,46.05
2022-11-17T18:19:26.932Z,56.55
2022-11-17T18:21:59.244Z,47.47
2022-11-17T18:24:27.183Z,45.22
2022-11-17T18:26:55.403Z,45.50
2022-11-17T18:29:23.526Z,41.97
2022-11-17T18:31:51.996Z,52.13
2022-11-17T18:34:22.273Z,45.17
2022-11-17T18:36:52.636Z,48.47
2022-11-17T18:39:21.542Z,45.83
2022-11-17T18:41:50.021Z,58.92
2022-11-17T18:44:21.712Z,50.40
2022-11-17T18:46:50.163Z,55.58
2022-11-17T18:49:18.593Z,59.50
2022-11-17T18:51:47.648Z,51.00
2022-11-17T18:54:15.935Z,53.53
2022-11-17T18:56:44.851Z,53.20
2022-11-17T18:59:13.245Z,57.67
2022-11-17T19:01:43.306Z,55.63
2022-11-17T19:04:15.291Z,57.40
2022-11-17T19:06:43.748Z,50.63
2022-11-17T19:09:11.889Z,53.55
2022-11-17T19:11:40.300Z,55.88
2022-11-17T19:14:08.356Z,58.05
2022-11-17T19:16:44.608Z,51.50
2022-11-17T19:19:14.468Z,79.70
2022-11-17T19:21:43.409Z,50.38
2022-11-17T19:24:11.740Z,58.35
2022-11-17T19:26:43.003Z,49.42
2022-11-17T19:29:16.633Z,49.10
2022-11-17T19:31:47.061Z,47.28
2022-11-17T19:34:16.267Z,52.83
2022-11-17T19:36:45.809Z,51.08
2022-11-17T19:39:14.876Z,54.63
2022-11-17T19:41:45.463Z,64.28
2022-11-17T19:44:13.620Z,58.63
2022-11-17T19:46:43.513Z,50.60
2022-11-17T19:49:11.995Z,51.28
2022-11-17T19:51:41.530Z,55.30
2022-11-17T19:54:11.977Z,49.15
2022-11-17T19:56:40.425Z,55.35
2022-11-17T19:59:13.995Z,51.67
2022-11-17T20:01:45.432Z,50.15
2022-11-17T20:04:13.758Z,52.85
2022-11-17T20:06:42.661Z,54.55
2022-11-17T20:09:13.914Z,58.33
2022-11-17T20:11:43.163Z,53.28
2022-11-17T20:14:11.389Z,58.67
2022-11-17T20:16:39.966Z,66.03
2022-11-17T20:19:09.251Z,53.78
2022-11-17T20:21:37.865Z,54.80
2022-11-17T20:24:06.269Z,66.15
2022-11-17T20:26:36.179Z,50.92
2022-11-17T20:29:04.484Z,56.60
2022-11-17T20:31:35.547Z,54.85
2022-11-17T20:34:05.882Z,63.40
2022-11-17T20:36:35.888Z,59.38
2022-11-17T20:39:06.779Z,58.30
2022-11-17T20:41:35.347Z,55.22
2022-11-17T20:44:04.538Z,49.75
2022-11-17T20:46:34.718Z,57.08
2022-11-17T20:49:02.898Z,50.70
2022-11-17T20:51:32.465Z,48.70
2022-11-17T20:54:00.680Z,48.30
2022-11-17T20:56:29.177Z,47.53
2022-11-17T20:58:57.338Z,48.88
2022-11-17T21:01:26.241Z,58.25
2022-11-17T21:03:54.451Z,51.63
2022-11-17T21:06:25.689Z,62.25
2022-11-17T21:08:53.921Z,49.83
2022-11-17T21:11:44.009Z,47.03
2022-11-17T21:14:13.497Z,52.05
2022-11-17T21:16:46.942Z,49.67
2022-11-17T21:19:16.258Z,53.55
2022-11-17T21:21:45.369Z,51.45
2022-11-17T21:24:13.748Z,55.55
2022-11-17T21:26:42.258Z,61.05
2022-11-17T21:29:10.367Z,52.92
2022-11-17T21:31:38.987Z,49.47
2022-11-17T21:34:07.752Z,66.22
2022-11-17T21:36:36.480Z,49.92
2022-11-17T21:39:06.387Z,55.83
2022-11-17T21:41:38.899Z,57.78
2022-11-17T21:44:07.156Z,60.40
2022-11-17T21:46:36.966Z,58.28
2022-11-17T21:49:05.280Z,53.10
2022-11-17T21:51:38.745Z,54.30
2022-11-17T21:54:09.238Z,54.75
2022-11-17T21:56:38.052Z,55.67
2022-11-17T21:59:10.609Z,55.88
2022-11-17T22:01:40.752Z,55.15
2022-11-17T22:04:11.141Z,56.72
2022-11-17T22:06:40.807Z,57.38
2022-11-17T22:09:10.220Z,51.90
2022-11-17T22:11:39.252Z,63.70
2022-11-17T22:14:09.239Z,62.05
2022-11-17T22:16:40.910Z,61.15
2022-11-17T22:19:09.675Z,53.30
2022-11-17T22:21:39.837Z,58.47
2022-11-17T22:24:10.797Z,54.47
2022-11-17T22:26:44.068Z,55.80
2022-11-17T22:29:20.149Z,58.88
2022-11-17T22:31:49.826Z,54.33
2022-11-17T22:34:18.835Z,51.90
2022-11-17T22:36:47.204Z,56.13
2022-11-17T22:39:17.062Z,57.88
2022-11-17T22:41:45.602Z,51.75
2022-11-17T22:44:15.683Z,65.97
2022-11-17T22:46:44.234Z,56.10
2022-11-17T22:49:13.696Z,55.20
2022-11-17T22:52:01.446Z,58.47
2022-11-17T22:54:30.623Z,54.00
2022-11-17T22:57:00.084Z,59.88
2022-11-17T22:59:30.060Z,54.03
2022-11-17T23:01:58.281Z,55.97
2022-11-17T23:04:26.322Z,55.83
2022-11-17T23:06:55.193Z,49.88
2022-11-17T23:09:23.343Z,54.10
2022-11-17T23:11:51.674Z,57.05
2022-11-17T23:14:20.242Z,49.83
2022-11-17T23:16:48.633Z,49.00
2022-11-17T23:19:16.842Z,55.63
2022-11-17T23:21:46.723Z,53.58
2022-11-17T23:24:14.994Z,52.40
2022-11-17T23:26:43.263Z,49.90
2022-11-17T23:29:11.338Z,50.80
2022-11-17T23:31:39.903Z,48.53
2022-11-17T23:34:11.134Z,45.05
2022-11-17T23:36:39.626Z,45.35
2022-11-17T23:39:07.694Z,48.72
2022-11-17T23:41:35.958Z,44.80
2022-11-17T23:44:04.049Z,39.70
2022-11-17T23:46:32.347Z,44.25
2022-11-17T23:49:00.327Z,41.20
2022-11-17T23:51:30.961Z,45.22
2022-11-17T23:54:01.114Z,39.65
2022-11-17T23:56:33.809Z,41.20
2022-11-17T23:59:01.832Z,49.03
